Time;durP1;ratioP1;P1;durP2;ratioP2;P2;SDS_P1;SDS_P2;PMS_P1;PMS_P2;Temp;Humidity;BMP_temperature;BMP_pressure;BME280_temperature;BME280_humidity;BME280_pressure;Samples;Min_cycle;Max_cycle;Signal;HPM_P1;HPM_P2
2022/12/30 00:00:24;;;;;;;7.20;5.27;;;;;;;-2.49;100.00;100573.00;5032258;28;20029;-67
2022/12/30 00:02:50;;;;;;;9.73;5.53;;;;;;;-2.38;100.00;100585.44;5032084;28;20064;-66
2022/12/30 00:05:15;;;;;;;10.43;5.37;;;;;;;-2.38;100.00;100575.00;5014158;28;20029;-67
2022/12/30 00:07:41;;;;;;;10.13;5.10;;;;;;;-2.36;100.00;100571.38;5031098;28;20053;-67
2022/12/30 00:10:07;;;;;;;7.53;5.43;;;;;;;-2.35;100.00;100570.44;5014540;28;20457;-67
2022/12/30 00:35:15;;;;;;;11.23;7.30;;;;;;;-2.32;100.00;100548.56;5032166;28;20018;-67
2022/12/30 00:37:40;;;;;;;10.77;7.95;;;;;;;-2.29;100.00;100551.03;5032147;28;20500;-66
2022/12/30 00:40:06;;;;;;;7.27;5.77;;;;;;;-2.34;100.00;100543.44;5034363;28;20056;-66
2022/12/30 00:45:16;;;;;;;9.30;6.40;;;;;;;-2.40;100.00;100529.91;5020513;28;20064;-66
2022/12/30 00:47:43;;;;;;;9.20;5.57;;;;;;;-2.45;100.00;100527.56;5035529;28;20018;-66
2022/12/30 00:58:21;;;;;;;10.52;6.88;;;;;;;-2.38;100.00;100502.81;5035721;28;20040;-69
2022/12/30 01:00:47;;;;;;;10.80;6.83;;;;;;;-2.34;100.00;100513.91;5033405;28;20025;-68
2022/12/30 01:03:12;;;;;;;10.70;6.57;;;;;;;-2.34;100.00;100509.53;5034893;28;20444;-69
2022/12/30 01:05:38;;;;;;;11.00;6.80;;;;;;;-2.44;100.00;100492.75;5033545;28;20116;-68
2022/12/30 01:08:04;;;;;;;13.30;8.23;;;;;;;-2.33;100.00;100499.94;5016925;28;20025;-66
2022/12/30 01:10:29;;;;;;;8.90;6.03;;;;;;;-2.32;100.00;100499.84;5033872;28;20604;-69
2022/12/30 01:12:55;;;;;;;8.83;5.53;;;;;;;-2.45;100.00;100485.84;5015043;28;20041;-67
2022/12/30 01:15:21;;;;;;;9.43;5.90;;;;;;;-2.54;100.00;100465.50;5031610;28;20042;-67
2022/12/30 01:17:46;;;;;;;8.97;5.87;;;;;;;-2.45;100.00;100475.41;5013754;28;20045;-68
2022/12/30 01:20:12;;;;;;;9.30;5.83;;;;;;;-2.42;100.00;100475.25;5017602;28;20107;-66
2022/12/30 01:22:37;;;;;;;11.23;5.57;;;;;;;-2.30;100.00;100479.78;5035464;28;20026;-68
2022/12/30 01:25:03;;;;;;;9.00;5.90;;;;;;;-2.26;100.00;100481.28;5035266;28;20030;-66
2022/12/30 01:27:30;;;;;;;9.13;5.30;;;;;;;-2.27;100.00;100468.31;5035488;28;20079;-67
2022/12/30 01:29:56;;;;;;;9.45;6.05;;;;;;;-2.24;100.00;100466.38;5017447;28;20030;-67
2022/12/30 01:32:22;;;;;;;8.03;6.00;;;;;;;-2.19;100.00;100461.72;5034740;28;20033;-68
2022/12/30 01:34:51;;;;;;;6.85;5.10;;;;;;;-2.14;100.00;100469.28;5034990;28;20056;-67
2022/12/30 01:37:17;;;;;;;8.10;5.40;;;;;;;-2.13;100.00;100457.06;5036497;28;20496;-66
2022/12/30 01:39:42;;;;;;;9.30;5.70;;;;;;;-2.24;100.00;100442.06;5036264;28;20022;-65
2022/12/30 01:42:21;;;;;;;8.13;4.87;;;;;;;-2.20;100.00;100449.59;5036392;28;20071;-67
2022/12/30 01:44:52;;;;;;;7.85;4.93;;;;;;;-2.25;100.00;100443.81;5001846;28;20022;-66
2022/12/30 01:47:24;;;;;;;6.80;5.10;;;;;;;-2.19;100.00;100451.28;5036623;28;20041;-69
2022/12/30 01:49:53;;;;;;;6.88;5.38;;;;;;;-2.29;100.00;100434.50;5036305;28;20057;-67
2022/12/30 01:52:23;;;;;;;7.53;5.50;;;;;;;-2.30;100.00;100440.66;5037564;28;20450;-67
2022/12/30 01:54:50;;;;;;;7.32;4.68;;;;;;;-2.30;100.00;100445.88;5035349;28;20028;-68
2022/12/30 01:57:16;;;;;;;7.93;6.03;;;;;;;-2.38;100.00;100442.84;5016680;28;20038;-67
2022/12/30 01:59:42;;;;;;;8.32;5.28;;;;;;;-2.39;100.00;100432.50;5034114;28;20029;-68
2022/12/30 02:02:08;;;;;;;10.07;6.50;;;;;;;-2.39;100.00;100445.53;5034501;28;20030;-68
2022/12/30 02:04:36;;;;;;;8.03;5.30;;;;;;;-2.36;100.00;100443.59;5034577;28;20037;-66
2022/12/30 02:07:07;;;;;;;6.72;4.90;;;;;;;-2.28;100.00;100446.63;5016765;28;20025;-68
2022/12/30 02:09:34;;;;;;;10.68;5.28;;;;;;;-2.38;100.00;100435.00;5034394;28;20033;-66
2022/12/30 02:12:01;;;;;;;10.70;5.57;;;;;;;-2.34;100.00;100439.13;5033811;28;20381;-69
2022/12/30 02:14:30;;;;;;;9.25;5.25;;;;;;;-2.36;100.00;100432.31;5033601;28;20046;-66
2022/12/30 02:17:16;;;;;;;7.43;6.65;;;;;;;-2.51;100.00;100398.38;5016563;28;20033;-66
2022/12/30 02:20:14;;;;;;;9.38;7.03;;;;;;;-2.34;100.00;100439.13;5034337;28;20044;-68
2022/12/30 02:23:10;;;;;;;12.07;6.03;;;;;;;-2.47;100.00;100409.47;5034167;28;20510;-68
2022/12/30 02:26:12;;;;;;;8.77;6.57;;;;;;;-2.28;100.00;100437.94;5034779;28;20184;-69
2022/12/30 02:28:38;;;;;;;10.63;7.18;;;;;;;-2.27;100.00;100423.97;5034144;28;20504;-67
2022/12/30 02:31:29;;;;;;;8.33;5.90;;;;;;;-2.21;100.00;100424.44;5034546;28;20029;-67
2022/12/30 02:34:13;;;;;;;11.75;7.18;;;;;;;-2.23;100.00;100423.72;5035086;28;20396;-67
2022/12/30 02:36:57;;;;;;;11.02;7.60;;;;;;;-2.24;100.00;100406.38;5033773;28;20031;-66
2022/12/30 02:39:41;;;;;;;10.85;7.35;;;;;;;-2.16;100.00;100423.34;5033832;28;20025;-67
2022/12/30 02:45:29;;;;;;;9.75;5.90;;;;;;;-2.15;100.00;100399.78;5033580;28;20045;-69
2022/12/30 02:48:01;;;;;;;7.53;5.75;;;;;;;-2.14;100.00;100396.22;5027170;28;20038;-70
2022/12/30 02:53:17;;;;;;;9.43;5.05;;;;;;;-2.08;100.00;100397.63;5015597;28;20055;-65
2022/12/30 02:55:43;;;;;;;11.13;5.03;;;;;;;-2.10;100.00;100394.28;5033038;28;20099;-66
2022/12/30 02:58:09;;;;;;;9.07;5.17;;;;;;;-2.16;100.00;100397.25;5033548;28;20053;-68
2022/12/30 03:03:59;;;;;;;6.47;5.00;;;;;;;-2.24;100.00;100389.88;5038236;28;20040;-68
2022/12/30 03:06:59;;;;;;;7.32;4.90;;;;;;;-2.25;100.00;100381.22;5039530;28;20064;-67
2022/12/30 03:13:15;;;;;;;6.20;4.70;;;;;;;-2.19;100.00;100367.81;5038314;28;20056;-66
2022/12/30 03:16:19;;;;;;;7.22;5.03;;;;;;;-2.10;100.00;100376.84;5033600;28;20388;-68
2022/12/30 03:18:47;;;;;;;6.40;5.32;;;;;;;-2.14;100.00;100374.53;5026618;28;20044;-67
2022/12/30 03:21:13;;;;;;;7.03;4.53;;;;;;;-2.11;100.00;100385.59;5045773;28;20029;-66
2022/12/30 03:29:18;;;;;;;6.80;4.85;;;;;;;-2.12;100.00;100385.69;5014188;28;20025;-67
2022/12/30 03:31:44;;;;;;;7.82;4.55;;;;;;;-2.10;100.00;100391.66;5033419;28;20481;-69
2022/12/30 03:34:10;;;;;;;6.47;5.10;;;;;;;-2.13;100.00;100368.38;5032248;28;20048;-68
2022/12/30 03:36:43;;;;;;;5.83;4.80;;;;;;;-2.13;100.00;100371.81;5031636;28;20026;-69
2022/12/30 03:39:16;;;;;;;7.47;5.20;;;;;;;-2.20;100.00;100363.53;5013615;28;20255;-71
2022/12/30 03:41:45;;;;;;;6.78;5.15;;;;;;;-2.15;100.00;100357.19;5030919;28;20069;-68
2022/12/30 03:44:11;;;;;;;6.85;5.50;;;;;;;-2.14;100.00;100364.09;5032060;28;20374;-68
2022/12/30 03:46:41;;;;;;;7.28;5.25;;;;;;;-2.11;100.00;100345.63;5034918;28;20481;-66
2022/12/30 03:49:07;;;;;;;5.78;5.00;;;;;;;-2.10;100.00;100349.91;5032760;28;20420;-67
2022/12/30 03:51:33;;;;;;;7.73;5.47;;;;;;;-2.10;100.00;100349.91;5034848;28;20087;-66
2022/12/30 03:53:59;;;;;;;9.77;6.37;;;;;;;-2.08;100.00;100353.28;5036742;28;20037;-68
2022/12/30 03:56:24;;;;;;;8.30;5.20;;;;;;;-2.11;100.00;100341.25;5018159;28;20087;-69
2022/12/30 03:58:50;;;;;;;10.80;6.27;;;;;;;-2.08;100.00;100338.47;5017938;28;20032;-67
2022/12/30 04:01:15;;;;;;;6.60;5.20;;;;;;;-2.10;100.00;100331.66;5032857;28;20033;-69
2022/12/30 04:03:41;;;;;;;7.73;6.23;;;;;;;-2.06;100.00;100335.75;5031693;28;20459;-68
2022/12/30 04:06:06;;;;;;;8.67;6.07;;;;;;;-2.14;100.00;100332.78;5031269;28;20033;-67
2022/12/30 04:08:32;;;;;;;7.30;5.47;;;;;;;-2.23;100.00;100310.69;5031074;28;20464;-67
2022/12/30 04:10:57;;;;;;;8.50;5.30;;;;;;;-2.25;100.00;100302.97;5030821;28;20477;-69
2022/12/30 04:13:26;;;;;;;8.82;6.00;;;;;;;-2.07;100.00;100324.47;4970833;28;1737423;-66
2022/12/30 04:15:52;;;;;;;8.97;6.03;;;;;;;-2.07;100.00;100331.47;5033341;28;20089;-68
2022/12/30 04:18:18;;;;;;;8.80;6.07;;;;;;;-2.11;100.00;100317.78;5031871;28;20264;-68
2022/12/30 04:20:46;;;;;;;10.30;5.70;;;;;;;-2.05;100.00;100329.59;5031675;28;20037;-69
2022/12/30 04:23:11;;;;;;;7.80;6.30;;;;;;;-2.04;100.00;100324.28;5014057;28;20321;-66
2022/12/30 04:25:37;;;;;;;7.33;5.70;;;;;;;-2.04;100.00;100315.63;5031561;28;20516;-68
2022/12/30 04:28:03;;;;;;;9.47;5.17;;;;;;;-1.99;100.00;100317.03;5031946;28;20551;-67
2022/12/30 04:30:28;;;;;;;8.32;6.07;;;;;;;-1.88;100.00;100326.81;5031906;28;20026;-68
2022/12/30 04:32:54;;;;;;;9.00;5.53;;;;;;;-1.92;100.00;100320.13;5031782;28;20350;-69
2022/12/30 04:35:19;;;;;;;7.53;5.60;;;;;;;-1.94;100.00;100320.22;5031709;28;20116;-67
2022/12/30 04:37:48;;;;;;;7.33;6.33;;;;;;;-1.90;100.00;100321.69;5031289;28;20021;-69
2022/12/30 04:40:13;;;;;;;9.63;6.07;;;;;;;-1.90;100.00;100311.25;5013813;28;20489;-68
2022/12/30 04:42:39;;;;;;;8.30;6.47;;;;;;;-1.84;100.00;100312.63;5031869;28;20030;-66
2022/12/30 04:45:04;;;;;;;10.47;6.23;;;;;;;-1.82;100.00;100302.94;5031860;28;20377;-68
2022/12/30 04:47:30;;;;;;;9.20;6.03;;;;;;;-1.73;100.00;100306.78;5031443;28;20036;-70
2022/12/30 04:49:56;;;;;;;8.53;6.27;;;;;;;-1.76;100.00;100292.09;5013912;28;20067;-70
2022/12/30 04:52:21;;;;;;;7.13;5.43;;;;;;;-1.69;100.00;100300.41;5014054;28;20469;-67
2022/12/30 04:54:47;;;;;;;7.77;5.73;;;;;;;-1.76;100.00;100284.28;5035472;28;20298;-68
2022/12/30 04:57:12;;;;;;;8.03;6.17;;;;;;;-1.77;100.00;100285.22;5017834;28;20032;-70
2022/12/30 04:59:38;;;;;;;7.87;6.10;;;;;;;-1.71;100.00;100287.47;5035265;28;20056;-66
2022/12/30 05:02:03;;;;;;;7.80;5.87;;;;;;;-1.66;100.00;100297.63;5035367;28;20473;-68
2022/12/30 05:04:29;;;;;;;9.43;6.10;;;;;;;-1.60;100.00;100298.06;5035075;28;20021;-70
2022/12/30 05:06:54;;;;;;;10.53;7.10;;;;;;;-1.59;100.00;100289.28;5017383;28;20026;-67
2022/12/30 05:09:20;;;;;;;10.07;7.47;;;;;;;-1.56;100.00;100294.31;5035556;28;20028;-69
2022/12/30 05:11:46;;;;;;;9.67;6.80;;;;;;;-1.61;100.00;100285.94;5035314;28;20047;-68
2022/12/30 05:14:11;;;;;;;7.27;6.03;;;;;;;-1.57;100.00;100287.41;5034972;28;20049;-68
2022/12/30 05:16:37;;;;;;;9.53;6.33;;;;;;;-1.56;100.00;100283.88;5035181;28;20489;-67
2022/12/30 05:19:02;;;;;;;7.70;6.03;;;;;;;-1.52;100.00;100278.44;5000909;28;20056;-72
2022/12/30 05:21:28;;;;;;;7.20;6.37;;;;;;;-1.51;100.00;100280.13;5034748;28;20498;-68
2022/12/30 05:26:38;;;;;;;8.80;6.10;;;;;;;-1.52;100.00;100278.44;5035170;28;20026;-67
2022/12/30 05:29:03;;;;;;;7.53;6.23;;;;;;;-1.57;100.00;100268.31;5034899;28;20279;-70
2022/12/30 05:31:29;;;;;;;8.97;5.83;;;;;;;-1.43;100.00;100283.09;5034682;28;20121;-70
2022/12/30 05:33:54;;;;;;;9.37;6.50;;;;;;;-1.43;100.00;100275.28;5034927;28;20033;-68
2022/12/30 05:36:20;;;;;;;8.00;7.00;;;;;;;-1.49;100.00;100259.97;5034326;28;20120;-68
2022/12/30 05:38:45;;;;;;;10.60;7.87;;;;;;;-1.50;100.00;100263.53;5034706;28;20029;-67
2022/12/30 05:41:11;;;;;;;9.80;7.83;;;;;;;-1.49;100.00;100266.03;5034997;28;20075;-68
2022/12/30 05:43:36;;;;;;;9.77;7.03;;;;;;;-1.41;100.00;100265.56;5034600;28;20654;-67
2022/12/30 05:46:02;;;;;;;11.00;8.17;;;;;;;-1.48;100.00;100254.66;5034708;28;20037;-66
2022/12/30 05:48:28;;;;;;;9.43;7.87;;;;;;;-1.37;100.00;100264.44;5034374;28;20037;-68
2022/12/30 05:51:18;;;;;;;9.53;7.23;;;;;;;-1.37;100.00;100272.25;5034619;28;20351;-68
2022/12/30 05:53:44;;;;;;;9.57;7.67;;;;;;;-1.34;100.00;100279.91;5034235;28;20276;-69
2022/12/30 05:56:09;;;;;;;9.07;8.00;;;;;;;-1.35;100.00;100273.00;5034530;28;20070;-66
2022/12/30 05:58:35;;;;;;;9.90;7.93;;;;;;;-1.33;100.00;100268.50;5034456;28;20036;-67
2022/12/30 06:01:03;;;;;;;13.27;8.73;;;;;;;-1.32;100.00;100260.56;5034020;28;20036;-69
2022/12/30 06:03:30;;;;;;;11.03;8.10;;;;;;;-1.37;100.00;100252.22;5034137;28;20025;-67
2022/12/30 06:05:57;;;;;;;12.83;8.50;;;;;;;-1.25;100.00;100261.00;5034325;28;20573;-68
2022/12/30 06:08:22;;;;;;;14.27;9.37;;;;;;;-1.22;100.00;100255.56;5033987;28;20264;-69
2022/12/30 06:10:48;;;;;;;14.07;9.17;;;;;;;-1.18;100.00;100267.50;5033958;28;20283;-70
2022/12/30 06:13:14;;;;;;;14.10;9.03;;;;;;;-1.27;100.00;100247.22;5033661;28;20159;-70
2022/12/30 06:15:39;;;;;;;13.80;9.83;;;;;;;-1.21;100.00;100267.72;5016159;28;20477;-69
2022/12/30 06:18:05;;;;;;;13.30;9.67;;;;;;;-1.26;100.00;100243.66;5033685;28;20116;-70
2022/12/30 06:20:33;;;;;;;14.77;9.67;;;;;;;-1.24;100.00;100262.69;5015969;28;20120;-67
2022/12/30 06:23:01;;;;;;;12.73;9.63;;;;;;;-1.27;100.00;100263.72;5034152;28;20063;-68
2022/12/30 06:25:27;;;;;;;13.40;9.27;;;;;;;-1.27;100.00;100257.66;5034247;28;20033;-68
2022/12/30 06:27:52;;;;;;;15.80;10.57;;;;;;;-1.26;100.00;100259.34;5015982;28;20033;-68
2022/12/30 06:30:18;;;;;;;16.70;8.97;;;;;;;-1.25;100.00;100263.63;5033405;28;20040;-71
2022/12/30 06:32:43;;;;;;;12.30;8.97;;;;;;;-1.22;100.00;100275.66;5033591;28;20128;-72
2022/12/30 06:35:10;;;;;;;13.50;10.03;;;;;;;-1.18;100.00;100267.50;5033395;28;20072;-67
2022/12/30 06:37:35;;;;;;;16.37;10.07;;;;;;;-1.14;100.00;100260.31;5033264;28;20018;-66
2022/12/30 06:40:01;;;;;;;18.33;9.77;;;;;;;-1.11;100.00;100260.97;5033126;28;20325;-72
2022/12/30 06:42:28;;;;;;;16.60;9.63;;;;;;;-1.07;100.00;100258.97;5033266;28;20381;-69
2022/12/30 06:44:54;;;;;;;12.50;9.27;;;;;;;-1.07;100.00;100253.75;5033066;28;20264;-68
2022/12/30 06:47:19;;;;;;;14.60;9.97;;;;;;;-1.13;100.00;100255.00;5033315;28;20037;-68
2022/12/30 06:49:45;;;;;;;16.40;11.53;;;;;;;-1.17;100.00;100244.81;5033348;28;20487;-71
2022/12/30 06:52:11;;;;;;;20.50;11.03;;;;;;;-1.14;100.00;100248.09;5032920;28;20029;-70
2022/12/30 06:54:36;;;;;;;15.67;11.33;;;;;;;-1.15;100.00;100245.59;5032791;28;20033;-68
2022/12/30 06:57:01;;;;;;;17.23;11.80;;;;;;;-1.04;100.00;100243.94;5032813;28;20025;-70
2022/12/30 06:59:27;;;;;;;12.30;9.87;;;;;;;-1.00;100.00;100250.63;5033092;28;20025;-67
2022/12/30 07:01:52;;;;;;;16.00;10.50;;;;;;;-0.92;100.00;100257.94;5033087;28;20037;-70
2022/12/30 07:04:18;;;;;;;18.27;10.10;;;;;;;-0.94;100.00;100250.22;5033607;28;20025;-70
2022/12/30 07:06:43;;;;;;;14.00;10.10;;;;;;;-1.16;100.00;100218.59;5033128;28;20039;-70
2022/12/30 07:09:09;;;;;;;17.33;11.53;;;;;;;-0.91;100.00;100259.63;5033025;28;20040;-70
2022/12/30 07:11:35;;;;;;;14.23;9.27;;;;;;;-0.89;100.00;100262.97;5019833;28;20029;-69
2022/12/30 07:14:02;;;;;;;11.97;9.60;;;;;;;-0.84;100.00;100266.16;5022121;28;20052;-64
2022/12/30 07:16:27;;;;;;;12.67;9.17;;;;;;;-0.85;100.00;100268.88;5040022;28;20105;-71
2022/12/30 07:18:54;;;;;;;13.87;10.87;;;;;;;-0.86;100.00;100256.72;5043205;28;20260;-65
2022/12/30 07:21:19;;;;;;;14.80;9.80;;;;;;;-0.80;100.00;100266.78;5037215;28;20068;-67
2022/12/30 07:23:45;;;;;;;16.10;10.00;;;;;;;-0.90;100.00;100239.56;5032928;28;20425;-68
2022/12/30 07:26:10;;;;;;;17.60;10.90;;;;;;;-0.80;100.00;100251.94;5032186;28;20365;-66
2022/12/30 07:28:36;;;;;;;18.40;10.57;;;;;;;-0.92;100.00;100242.25;5014152;28;20028;-68
2022/12/30 07:31:01;;;;;;;17.83;12.03;;;;;;;-0.87;100.00;100265.47;5032091;28;20469;-67
2022/12/30 07:33:27;;;;;;;17.00;10.90;;;;;;;-0.82;100.00;100271.28;5032303;28;20059;-69
2022/12/30 07:35:52;;;;;;;15.77;10.67;;;;;;;-0.75;100.00;100267.31;5032356;28;20083;-68
2022/12/30 07:38:18;;;;;;;15.30;10.67;;;;;;;-0.93;100.00;100236.19;5032154;28;20067;-69
2022/12/30 07:40:43;;;;;;;17.33;11.40;;;;;;;-0.63;100.00;100261.22;5014686;28;20077;-70
2022/12/30 07:43:09;;;;;;;18.83;11.73;;;;;;;-0.61;100.00;100269.81;5032377;28;20029;-67
2022/12/30 07:45:35;;;;;;;17.47;10.20;;;;;;;-0.63;100.00;100258.63;5034506;28;20029;-66
2022/12/30 07:48:01;;;;;;;16.87;10.53;;;;;;;-0.63;100.00;100266.47;5042987;28;20041;-67
2022/12/30 07:50:26;;;;;;;21.67;10.60;;;;;;;-0.67;100.00;100273.69;5019050;28;20326;-68
2022/12/30 07:52:53;;;;;;;18.83;11.20;;;;;;;-0.67;100.00;100270.22;5033416;28;20065;-67
2022/12/30 07:55:18;;;;;;;16.00;10.60;;;;;;;-0.66;100.00;100262.28;5033088;28;20577;-67
2022/12/30 07:57:43;;;;;;;15.67;9.80;;;;;;;-0.56;100.00;100262.53;5032182;28;20477;-69
2022/12/30 08:00:09;;;;;;;16.23;10.13;;;;;;;-0.52;100.00;100261.38;5032027;28;20029;-69
2022/12/30 08:02:36;;;;;;;14.40;10.00;;;;;;;-0.53;100.00;100244.00;5032372;28;20021;-70
2022/12/30 08:05:01;;;;;;;20.97;10.43;;;;;;;-0.57;100.00;100234.69;5032692;28;20429;-68
2022/12/30 08:07:28;;;;;;;18.37;10.33;;;;;;;-0.54;100.00;100250.16;5032936;28;20275;-66
2022/12/30 08:09:53;;;;;;;19.40;10.43;;;;;;;-0.50;100.00;100241.16;5030827;28;20740;-67
2022/12/30 08:12:20;;;;;;;16.90;10.03;;;;;;;-0.53;100.00;100233.53;5031593;28;20030;-68
2022/12/30 08:14:45;;;;;;;18.63;11.17;;;;;;;-0.52;100.00;100245.66;5031903;28;20041;-69
2022/12/30 08:17:11;;;;;;;12.93;9.27;;;;;;;-0.47;100.00;100253.19;5031455;28;20268;-68
2022/12/30 08:19:37;;;;;;;21.03;11.43;;;;;;;-0.45;100.00;100246.09;5031722;28;20036;-70
2022/12/30 08:22:02;;;;;;;21.87;10.47;;;;;;;-0.47;100.00;100251.41;5031594;28;20076;-67
2022/12/30 08:24:28;;;;;;;17.77;10.83;;;;;;;-0.48;100.00;100247.13;5030676;28;20057;-67
2022/12/30 08:26:53;;;;;;;18.93;9.73;;;;;;;-0.42;100.00;100246.72;5031583;28;20239;-71
2022/12/30 08:29:19;;;;;;;14.67;10.17;;;;;;;-0.36;100.00;100238.44;5034373;28;20025;-68
2022/12/30 08:31:49;;;;;;;20.70;12.23;;;;;;;-0.32;100.00;100236.44;5035721;28;20065;-70
2022/12/30 08:34:19;;;;;;;22.63;11.67;;;;;;;-0.34;100.00;100228.69;5035599;28;20532;-67
2022/12/30 08:36:46;;;;;;;21.20;12.00;;;;;;;-0.27;100.00;100244.00;5035521;28;20263;-68
2022/12/30 08:39:12;;;;;;;16.40;9.93;;;;;;;-0.23;100.00;100233.19;5035367;28;20351;-68
2022/12/30 08:41:43;;;;;;;19.13;10.83;;;;;;;-0.26;100.00;100225.56;5035441;28;20385;-68
2022/12/30 08:44:09;;;;;;;19.73;9.63;;;;;;;-0.38;100.00;100222.00;5035534;28;20268;-67
2022/12/30 08:46:36;;;;;;;15.77;9.17;;;;;;;-0.22;100.00;100236.66;5035437;28;20279;-67
2022/12/30 08:49:03;;;;;;;11.87;8.03;;;;;;;-0.31;100.00;100232.88;5018019;28;20260;-68
2022/12/30 08:51:29;;;;;;;13.93;9.40;;;;;;;-0.28;100.00;100239.69;5035927;28;20268;-69
2022/12/30 08:53:58;;;;;;;16.50;9.40;;;;;;;-0.25;100.00;100232.47;5035029;28;20407;-69
2022/12/30 08:56:29;;;;;;;14.27;9.10;;;;;;;-0.24;100.00;100234.16;5035111;28;20288;-67
2022/12/30 08:58:56;;;;;;;16.17;8.87;;;;;;;-0.17;100.00;100231.94;5017624;28;20479;-68
2022/12/30 09:01:25;;;;;;;15.53;9.23;;;;;;;-0.18;100.00;100233.72;5034954;28;20327;-69
2022/12/30 09:03:52;;;;;;;13.97;10.07;;;;;;;-0.23;100.00;100230.59;5034993;28;20810;-69
2022/12/30 09:06:20;;;;;;;13.20;7.53;;;;;;;-0.17;100.00;100238.00;5017149;28;20264;-69
2022/12/30 09:08:46;;;;;;;19.05;8.82;;;;;;;-0.21;100.00;100233.09;5034897;28;20260;-67
2022/12/30 09:11:21;;;;;;;14.97;8.90;;;;;;;-0.25;100.00;100227.25;5034683;28;20076;-68
2022/12/30 09:13:47;;;;;;;13.73;9.40;;;;;;;-0.25;100.00;100232.47;5034804;28;20308;-68
2022/12/30 09:16:16;;;;;;;13.23;7.60;;;;;;;-0.29;100.00;100222.28;5035345;28;20388;-67
2022/12/30 09:18:42;;;;;;;13.55;8.15;;;;;;;-0.32;100.00;100216.34;5035130;28;20268;-69
2022/12/30 09:21:07;;;;;;;16.77;9.17;;;;;;;-0.26;100.00;100225.56;5034622;28;20063;-67
2022/12/30 09:23:34;;;;;;;14.33;9.53;;;;;;;-0.28;100.00;100226.63;5035191;28;20069;-67
2022/12/30 09:25:59;;;;;;;12.87;8.13;;;;;;;-0.28;100.00;100221.38;5035016;28;20075;-68
2022/12/30 09:28:25;;;;;;;13.00;8.10;;;;;;;-0.22;100.00;100220.94;5035369;28;20268;-68
2022/12/30 09:30:51;;;;;;;17.03;7.63;;;;;;;-0.23;100.00;100206.19;5035209;28;20025;-67
2022/12/30 09:33:20;;;;;;;12.67;7.97;;;;;;;-0.27;100.00;100196.88;5034013;28;20465;-68
2022/12/30 09:35:48;;;;;;;11.20;7.70;;;;;;;-0.17;100.00;100208.38;5001889;28;20445;-68
2022/12/30 09:38:14;;;;;;;11.40;8.27;;;;;;;-0.14;100.00;100219.47;5016785;28;20351;-69
2022/12/30 09:40:58;;;;;;;11.57;7.63;;;;;;;-0.09;100.00;100213.91;5034491;28;20116;-69
2022/12/30 09:43:56;;;;;;;11.80;7.03;;;;;;;-0.03;100.00;100216.06;5017397;28;20365;-68
2022/12/30 09:46:38;;;;;;;14.65;8.48;;;;;;;0.02;100.00;100208.75;5034654;28;20248;-66
2022/12/30 09:49:18;;;;;;;9.23;7.43;;;;;;;0.04;100.00;100196.41;5034924;28;20366;-69
2022/12/30 09:51:48;;;;;;;13.93;8.87;;;;;;;0.08;100.00;100192.59;5034618;28;20259;-69
2022/12/30 09:54:17;;;;;;;14.67;8.07;;;;;;;0.17;100.00;100185.88;5034707;28;20279;-69
2022/12/30 09:56:45;;;;;;;15.93;8.30;;;;;;;0.20;100.00;100186.47;5036208;28;20256;-68
2022/12/30 09:59:17;;;;;;;11.93;8.55;;;;;;;0.20;100.00;100181.25;5037677;28;20332;-69
2022/12/30 10:01:47;;;;;;;14.70;8.67;;;;;;;0.19;100.00;100174.34;5037236;28;20465;-68
2022/12/30 10:04:18;;;;;;;11.43;8.50;;;;;;;0.23;100.00;100186.25;5036855;28;20248;-67
2022/12/30 10:06:55;;;;;;;9.90;8.20;;;;;;;0.28;100.00;100176.28;5036552;28;20252;-69
2022/12/30 10:09:29;;;;;;;12.07;8.07;;;;;;;0.29;100.00;100180.59;5034726;28;20256;-69
2022/12/30 10:12:37;;;;;;;8.87;7.37;;;;;;;0.35;100.00;100170.63;5034198;28;20263;-68
2022/12/30 10:15:24;;;;;;;10.95;7.28;;;;;;;0.43;100.00;100173.50;5005846;28;20291;-70
2022/12/30 10:18:20;;;;;;;9.87;7.07;;;;;;;0.46;100.00;100175.91;5034404;28;20029;-70
2022/12/30 10:20:52;;;;;;;10.03;7.17;;;;;;;0.40;100.00;100161.47;5034052;28;20310;-68
2022/12/30 10:23:51;;;;;;;8.50;6.87;;;;;;;0.43;100.00;100166.47;5033983;28;20256;-68
2022/12/30 10:26:24;;;;;;;;;;;;;;;0.46;100.00;100166.25;5034380;28;20259;-68
2022/12/30 10:28:59;;;;;;;9.60;6.67;;;;;;;0.45;100.00;100167.19;5033903;28;19909;-70
2022/12/30 10:31:28;;;;;;;9.43;7.47;;;;;;;0.44;100.00;100162.06;5033783;28;20272;-68
2022/12/30 10:34:04;;;;;;;8.82;7.28;;;;;;;0.45;100.00;100166.38;5016150;28;20830;-68
2022/12/30 10:36:38;;;;;;;10.53;6.97;;;;;;;0.47;100.00;100161.84;5033538;28;20064;-68
2022/12/30 10:39:22;;;;;;;9.53;7.43;;;;;;;0.50;100.00;100172.94;5033686;28;20260;-69
2022/12/30 10:42:28;;;;;;;17.90;8.33;;;;;;;0.53;100.00;100177.09;5033303;28;20753;-69
2022/12/30 10:45:18;;;;;;;11.90;8.40;;;;;;;0.47;100.00;100156.59;4972181;28;20349;-69
2022/12/30 10:47:46;;;;;;;13.33;9.00;;;;;;;0.52;100.00;100167.56;5030744;28;20272;-68
2022/12/30 10:50:44;;;;;;;11.02;7.63;;;;;;;0.57;100.00;100168.06;5033072;28;20295;-68
2022/12/30 10:53:18;;;;;;;11.10;7.55;;;;;;;0.57;100.00;100160.22;5021468;28;20048;-69
2022/12/30 10:55:50;;;;;;;12.07;9.13;;;;;;;0.59;100.00;100169.66;5015536;28;20497;-67
2022/12/30 10:58:43;;;;;;;12.07;8.20;;;;;;;0.62;100.00;100165.97;5032947;28;20314;-69
2022/12/30 11:01:19;;;;;;;15.33;8.10;;;;;;;0.62;100.00;100171.22;5026535;28;20284;-69
2022/12/30 11:03:49;;;;;;;16.30;9.83;;;;;;;0.64;100.00;100174.56;5033069;28;20585;-67
2022/12/30 11:06:25;;;;;;;9.97;7.93;;;;;;;0.63;100.00;100175.50;5033198;28;20363;-67
2022/12/30 11:08:52;;;;;;;13.73;9.93;;;;;;;0.56;100.00;100166.41;5032766;28;20276;-68
2022/12/30 11:11:18;;;;;;;14.57;8.73;;;;;;;0.55;100.00;100165.56;5032829;28;20681;-68
2022/12/30 11:16:41;;;;;;;14.73;9.17;;;;;;;0.56;100.00;100169.03;5032775;28;20038;-68
2022/12/30 11:19:23;;;;;;;19.00;9.33;;;;;;;0.59;100.00;100166.19;5033139;28;20292;-69
2022/12/30 11:21:54;;;;;;;12.80;7.67;;;;;;;0.58;100.00;100162.75;5032810;28;20299;-69
2022/12/30 11:24:21;;;;;;;11.60;8.60;;;;;;;0.55;100.00;100154.25;5032394;28;20256;-69
2022/12/30 11:26:48;;;;;;;16.47;7.93;;;;;;;0.56;100.00;100156.75;5032694;28;20260;-69
2022/12/30 11:29:18;;;;;;;13.83;7.93;;;;;;;0.61;100.00;100169.53;5033115;28;20382;-68
2022/12/30 11:31:47;;;;;;;15.80;9.20;;;;;;;0.57;100.00;100162.81;5032575;28;20356;-68
2022/12/30 11:34:44;;;;;;;14.13;8.63;;;;;;;0.61;100.00;100164.31;5032379;28;20260;-68
2022/12/30 11:37:32;;;;;;;16.33;7.67;;;;;;;0.60;100.00;100162.63;5020193;28;20270;-68
2022/12/30 11:40:37;;;;;;;14.70;8.02;;;;;;;0.63;100.00;100157.16;5032520;28;20264;-67
2022/12/30 11:43:13;;;;;;;15.27;9.57;;;;;;;0.64;100.00;100158.84;5031789;28;20477;-69
2022/12/30 11:46:02;;;;;;;16.73;11.23;;;;;;;0.68;100.00;100154.19;5035486;28;20272;-69
2022/12/30 11:48:34;;;;;;;16.33;9.63;;;;;;;0.75;100.00;100165.88;5036099;28;20275;-70
2022/12/30 11:51:03;;;;;;;15.27;10.23;;;;;;;0.73;100.00;100168.63;5036393;28;20739;-70
2022/12/30 11:53:33;;;;;;;18.37;10.57;;;;;;;0.71;100.00;100167.91;5034364;28;20325;-70
2022/12/30 11:55:59;;;;;;;14.63;10.73;;;;;;;0.59;100.00;100150.47;5035539;28;20029;-70
2022/12/30 11:58:25;;;;;;;20.13;11.17;;;;;;;0.73;100.00;100176.47;5034307;28;20255;-69
2022/12/30 12:01:09;;;;;;;17.57;10.17;;;;;;;0.81;100.00;100178.53;5032234;28;20066;-68
2022/12/30 12:03:58;;;;;;;20.77;10.80;;;;;;;0.85;100.00;100167.69;5031685;28;20033;-68
2022/12/30 12:06:24;;;;;;;15.13;9.70;;;;;;;0.80;100.00;100167.19;5032402;28;20286;-71
2022/12/30 12:08:58;;;;;;;14.70;9.87;;;;;;;0.82;100.00;100172.31;5032247;28;20310;-70
2022/12/30 12:11:30;;;;;;;14.50;9.90;;;;;;;0.84;100.00;100165.19;5032516;28;20033;-68
2022/12/30 12:14:17;;;;;;;15.30;9.97;;;;;;;0.87;100.00;100163.19;5032268;28;20748;-68
2022/12/30 12:17:01;;;;;;;17.80;10.77;;;;;;;0.93;100.00;100169.75;5015084;28;20744;-67
2022/12/30 12:19:39;;;;;;;18.97;11.03;;;;;;;0.85;100.00;100146.72;5031964;28;20303;-68
2022/12/30 12:22:14;;;;;;;17.00;10.73;;;;;;;1.00;100.00;100175.38;5031744;28;20765;-68